Time;durP1;ratioP1;P1;durP2;ratioP2;P2;SDS_P1;SDS_P2;PMS_P1;PMS_P2;Temp;Humidity;BMP_temperature;BMP_pressure;BME280_temperature;BME280_humidity;BME280_pressure;Samples;Min_cycle;Max_cycle;Signal;HPM_P1;HPM_P2
2021/11/02 00:00:48;;;;;;;11.43;8.60;;;;;;;;;;5007104;28;20920;-70
2021/11/02 00:03:13;;;;;;;13.17;8.17;;;;;;;;;;5004504;28;20214;-70
2021/11/02 00:05:39;;;;;;;10.87;8.60;;;;;;;;;;5006778;28;20630;-70
2021/11/02 00:08:05;;;;;;;12.73;9.30;;;;;;;;;;4994211;28;20543;-70
2021/11/02 00:10:30;;;;;;;11.80;8.77;;;;;;;;;;5008281;28;20260;-70
2021/11/02 00:12:56;;;;;;;9.90;8.10;;;;;;;;;;5006904;28;20182;-70
2021/11/02 00:15:23;;;;;;;11.43;8.40;;;;;;;;;;5005740;28;20190;-70
2021/11/02 00:17:51;;;;;;;12.60;8.73;;;;;;;;;;5011320;28;20904;-70
2021/11/02 00:20:16;;;;;;;13.27;8.80;;;;;;;;;;5005072;28;20187;-70
2021/11/02 00:22:44;;;;;;;12.47;9.37;;;;;;;;;;5004920;28;20205;-70
2021/11/02 00:25:11;;;;;;;11.33;8.13;;;;;;;;;;5002709;28;20275;-70
2021/11/02 00:27:37;;;;;;;11.27;8.47;;;;;;;;;;5012447;28;20179;-70
2021/11/02 00:30:04;;;;;;;12.47;9.07;;;;;;;;;;5009041;28;20186;-70
2021/11/02 00:32:29;;;;;;;13.50;9.27;;;;;;;;;;5004604;28;20218;-70
2021/11/02 00:34:54;;;;;;;13.13;8.93;;;;;;;;;;5008978;28;20751;-70
2021/11/02 00:37:19;;;;;;;11.97;8.43;;;;;;;;;;5010005;28;20329;-70
2021/11/02 00:39:44;;;;;;;11.77;8.73;;;;;;;;;;4993119;28;20564;-70
2021/11/02 00:42:10;;;;;;;11.93;10.40;;;;;;;;;;5009581;28;22467;-70
2021/11/02 00:44:36;;;;;;;12.43;8.80;;;;;;;;;;4993030;28;21610;-70
2021/11/02 00:47:02;;;;;;;12.77;9.17;;;;;;;;;;5009877;28;20175;-70
2021/11/02 00:49:27;;;;;;;13.40;9.77;;;;;;;;;;5007211;28;20198;-70
2021/11/02 00:51:52;;;;;;;14.03;10.20;;;;;;;;;;5009165;28;20671;-70
2021/11/02 00:54:18;;;;;;;12.50;9.73;;;;;;;;;;5007758;28;20252;-70
2021/11/02 00:56:43;;;;;;;12.73;9.67;;;;;;;;;;5015053;28;20305;-70
2021/11/02 00:59:09;;;;;;;13.67;10.00;;;;;;;;;;5007285;28;20182;-70
2021/11/02 01:01:34;;;;;;;13.23;9.93;;;;;;;;;;5008147;28;20175;-70
2021/11/02 01:04:04;;;;;;;13.87;9.90;;;;;;;;;;5006844;28;20293;-70
2021/11/02 01:06:29;;;;;;;15.80;10.67;;;;;;;;;;5008140;28;21895;-70
2021/11/02 01:08:54;;;;;;;13.93;10.30;;;;;;;;;;5005541;28;20182;-70
2021/11/02 01:11:20;;;;;;;13.57;10.10;;;;;;;;;;5012827;28;20178;-70
2021/11/02 01:13:45;;;;;;;15.43;10.43;;;;;;;;;;5006643;28;20209;-69
2021/11/02 01:16:10;;;;;;;14.57;10.20;;;;;;;;;;5007501;28;20198;-69
2021/11/02 01:18:35;;;;;;;12.90;9.90;;;;;;;;;;5012798;28;20186;-70
2021/11/02 01:21:02;;;;;;;12.70;11.30;;;;;;;;;;5007423;28;20614;-70
2021/11/02 01:23:27;;;;;;;13.90;10.50;;;;;;;;;;5006039;28;20670;-70
2021/11/02 01:25:54;;;;;;;15.07;10.03;;;;;;;;;;5009260;28;20252;-70
2021/11/02 01:28:19;;;;;;;11.20;10.03;;;;;;;;;;5008619;28;20668;-70
2021/11/02 01:30:45;;;;;;;12.27;9.90;;;;;;;;;;4990500;28;20190;-70
2021/11/02 01:33:10;;;;;;;14.17;10.37;;;;;;;;;;5007891;28;20207;-70
2021/11/02 01:35:35;;;;;;;12.00;9.63;;;;;;;;;;5006930;28;20538;-70
2021/11/02 01:38:03;;;;;;;16.03;10.43;;;;;;;;;;4986092;28;20191;-70
2021/11/02 01:40:29;;;;;;;12.03;9.73;;;;;;;;;;5007902;28;20221;-70
2021/11/02 01:42:54;;;;;;;14.17;10.30;;;;;;;;;;5009361;28;20297;-70
2021/11/02 01:45:21;;;;;;;12.80;10.00;;;;;;;;;;5007672;28;20210;-70
2021/11/02 01:47:47;;;;;;;15.80;10.70;;;;;;;;;;5007613;28;20726;-70
2021/11/02 01:50:13;;;;;;;12.90;10.27;;;;;;;;;;5005671;28;20182;-70
2021/11/02 01:52:39;;;;;;;12.73;10.00;;;;;;;;;;5027821;28;20312;-70
2021/11/02 01:55:04;;;;;;;12.43;9.60;;;;;;;;;;5029167;28;20198;-69
2021/11/02 01:57:29;;;;;;;13.00;10.03;;;;;;;;;;5031561;28;20185;-69
2021/11/02 01:59:55;;;;;;;12.77;9.23;;;;;;;;;;5026325;28;20178;-71
2021/11/02 02:02:35;;;;;;;13.83;10.27;;;;;;;;;;5005994;28;20204;-70
2021/11/02 02:05:21;;;;;;;15.47;9.63;;;;;;;;;;5007802;28;20284;-70
2021/11/02 02:08:03;;;;;;;14.83;10.03;;;;;;;;;;4986278;28;20193;-70
2021/11/02 02:10:35;;;;;;;11.77;9.60;;;;;;;;;;5004400;28;20574;-70
2021/11/02 02:13:18;;;;;;;15.23;10.93;;;;;;;;;;5006269;28;20721;-70
2021/11/02 02:15:50;;;;;;;16.60;10.63;;;;;;;;;;5006328;28;20187;-70
2021/11/02 02:18:21;;;;;;;16.27;11.27;;;;;;;;;;5012150;28;20679;-70
2021/11/02 02:21:05;;;;;;;15.97;11.10;;;;;;;;;;4990145;28;22093;-70
2021/11/02 02:25:57;;;;;;;19.33;11.43;;;;;;;;;;5020713;28;20241;-73
2021/11/02 02:28:31;;;;;;;17.80;11.40;;;;;;;;;;5012749;28;20179;-72
2021/11/02 02:30:59;;;;;;;20.83;10.93;;;;;;;;;;5010243;28;20179;-71
2021/11/02 02:33:26;;;;;;;19.13;10.77;;;;;;;;;;5030325;28;20182;-73
2021/11/02 02:35:52;;;;;;;19.00;11.73;;;;;;;;;;5028388;28;20186;-71
2021/11/02 02:38:19;;;;;;;20.83;11.67;;;;;;;;;;5029116;28;20833;-70
2021/11/02 02:40:45;;;;;;;18.77;10.63;;;;;;;;;;5020903;28;20208;-70
2021/11/02 02:43:12;;;;;;;23.23;10.63;;;;;;;;;;5010027;28;20283;-71
2021/11/02 02:45:39;;;;;;;20.13;10.27;;;;;;;;;;5008462;28;20226;-73
2021/11/02 02:48:04;;;;;;;18.10;10.77;;;;;;;;;;5004240;28;20175;-72
2021/11/02 02:50:30;;;;;;;21.73;12.53;;;;;;;;;;5008374;28;20185;-72
2021/11/02 02:52:56;;;;;;;26.93;11.53;;;;;;;;;;5007902;28;20736;-72
2021/11/02 02:55:22;;;;;;;27.03;12.60;;;;;;;;;;5007586;28;20320;-72
2021/11/02 02:57:47;;;;;;;26.00;12.20;;;;;;;;;;5011832;28;20269;-72
2021/11/02 03:00:12;;;;;;;25.63;10.60;;;;;;;;;;5008748;28;20210;-72
2021/11/02 03:02:39;;;;;;;27.67;12.17;;;;;;;;;;5007806;28;20812;-72
2021/11/02 03:05:07;;;;;;;27.83;11.97;;;;;;;;;;5008103;28;20203;-72
2021/11/02 03:07:32;;;;;;;26.57;11.80;;;;;;;;;;5008197;28;20186;-72
2021/11/02 03:09:57;;;;;;;29.23;12.07;;;;;;;;;;5008179;28;20186;-72
2021/11/02 03:12:25;;;;;;;32.97;13.00;;;;;;;;;;5009574;28;20193;-72
2021/11/02 03:15:34;;;;;;;29.53;12.83;;;;;;;;;;5008726;28;20198;-72
2021/11/02 03:18:04;;;;;;;27.83;11.80;;;;;;;;;;5013335;28;20212;-72
2021/11/02 03:50:26;;;;;;;35.17;11.50;;;;;;;;;;5007139;28;20196;-72
2021/11/02 03:55:42;;;;;;;27.50;10.90;;;;;;;;;;5007423;28;20220;-72
2021/11/02 03:58:15;;;;;;;26.30;11.53;;;;;;;;;;5010552;28;20174;-73
2021/11/02 04:37:19;;;;;;;19.00;8.93;;;;;;;;;;4951311;28;20267;-70
2021/11/02 05:55:46;;;;;;;14.97;8.53;;;;;;;;;;5007790;28;20236;-72
2021/11/02 05:58:28;;;;;;;10.63;7.37;;;;;;;;;;5010960;28;20673;-71
2021/11/02 06:03:27;;;;;;;12.60;8.40;;;;;;;;;;5010178;28;20205;-72
2021/11/02 06:06:00;;;;;;;13.50;8.07;;;;;;;;;;5023148;28;20284;-72
2021/11/02 06:08:34;;;;;;;17.87;8.30;;;;;;;;;;5009366;28;20182;-72
2021/11/02 06:28:06;;;;;;;14.13;9.47;;;;;;;;;;5012339;28;20189;-71
2021/11/02 06:30:46;;;;;;;13.07;9.37;;;;;;;;;;5009425;28;20179;-71
2021/11/02 06:33:20;;;;;;;15.90;8.73;;;;;;;;;;5010172;28;20189;-72
2021/11/02 06:35:59;;;;;;;17.60;8.60;;;;;;;;;;5009325;28;20203;-72
2021/11/02 06:46:55;;;;;;;13.97;8.60;;;;;;;;;;5010504;28;20224;-71
2021/11/02 07:17:07;;;;;;;14.47;9.33;;;;;;;;;;5010942;28;20193;-73
2021/11/02 07:19:37;;;;;;;14.77;10.30;;;;;;;;;;5010899;28;20198;-73
2021/11/02 08:49:55;;;;;;;14.37;10.37;;;;;;;;;;5014786;28;20227;-73
2021/11/02 08:52:21;;;;;;;13.87;10.87;;;;;;;;;;5014885;28;20194;-74
2021/11/02 08:54:48;;;;;;;15.80;12.13;;;;;;;;;;5015935;28;20198;-74
2021/11/02 08:57:14;;;;;;;17.67;12.67;;;;;;;;;;5021068;28;20272;-74
2021/11/02 08:59:39;;;;;;;16.07;11.90;;;;;;;;;;5014264;28;20193;-73
2021/11/02 09:02:06;;;;;;;17.27;11.50;;;;;;;;;;5013107;28;20205;-73
2021/11/02 09:04:31;;;;;;;17.77;10.97;;;;;;;;;;5014266;28;20238;-74
2021/11/02 09:06:58;;;;;;;17.20;12.40;;;;;;;;;;5015202;28;20191;-74
2021/11/02 09:09:23;;;;;;;18.13;12.47;;;;;;;;;;5011658;28;20264;-74
2021/11/02 09:11:48;;;;;;;19.17;12.83;;;;;;;;;;5015144;28;20807;-74
2021/11/02 09:14:16;;;;;;;17.30;11.93;;;;;;;;;;5013830;28;20286;-74
2021/11/02 09:16:45;;;;;;;17.37;12.13;;;;;;;;;;5015235;28;20186;-74
2021/11/02 09:19:12;;;;;;;18.50;12.27;;;;;;;;;;5011587;28;20196;-74
2021/11/02 09:21:37;;;;;;;19.80;12.97;;;;;;;;;;5010114;28;20679;-74
2021/11/02 09:24:02;;;;;;;14.67;12.13;;;;;;;;;;5009969;28;20218;-74
2021/11/02 09:26:30;;;;;;;18.90;13.27;;;;;;;;;;5013363;28;21392;-74
2021/11/02 09:28:56;;;;;;;18.37;12.53;;;;;;;;;;5013198;28;20187;-74
2021/11/02 09:31:23;;;;;;;19.63;12.70;;;;;;;;;;5012494;28;20232;-74
2021/11/02 09:33:49;;;;;;;17.10;12.23;;;;;;;;;;5014699;28;20202;-74
2021/11/02 09:36:17;;;;;;;18.60;13.27;;;;;;;;;;5012412;28;20796;-75
2021/11/02 09:38:42;;;;;;;17.87;14.10;;;;;;;;;;5011746;28;20207;-74
2021/11/02 09:41:30;;;;;;;16.60;13.53;;;;;;;;;;5013598;28;20232;-74
2021/11/02 09:44:19;;;;;;;22.20;12.83;;;;;;;;;;4986451;28;20463;-75
2021/11/02 09:46:44;;;;;;;19.07;13.03;;;;;;;;;;5014906;28;21810;-74
2021/11/02 09:49:12;;;;;;;19.40;14.47;;;;;;;;;;5014634;28;20183;-75
2021/11/02 09:51:56;;;;;;;18.50;14.20;;;;;;;;;;5010841;28;20185;-74
2021/11/02 09:54:26;;;;;;;19.57;14.23;;;;;;;;;;5013233;28;20660;-75
2021/11/02 09:57:12;;;;;;;18.37;14.33;;;;;;;;;;5015167;28;20194;-74
2021/11/02 09:59:50;;;;;;;20.20;14.60;;;;;;;;;;5014947;28;20178;-74
2021/11/02 10:02:39;;;;;;;23.43;16.17;;;;;;;;;;5010718;28;20178;-74
2021/11/02 10:05:06;;;;;;;18.00;13.13;;;;;;;;;;5018886;28;20237;-75
2021/11/02 10:07:36;;;;;;;18.53;14.37;;;;;;;;;;5011142;28;20304;-74
2021/11/02 10:10:11;;;;;;;19.10;14.73;;;;;;;;;;5012038;28;20209;-74
2021/11/02 10:12:56;;;;;;;22.83;13.33;;;;;;;;;;5026146;28;20316;-74
2021/11/02 10:15:27;;;;;;;19.67;14.60;;;;;;;;;;5027130;28;20206;-74
2021/11/02 10:17:54;;;;;;;21.07;14.33;;;;;;;;;;5026522;28;20614;-75
2021/11/02 10:20:29;;;;;;;19.08;17.05;;;;;;;;;;5029545;28;20784;-75
2021/11/02 10:23:01;;;;;;;18.20;14.30;;;;;;;;;;5023626;28;20182;-74
2021/11/02 10:25:32;;;;;;;16.40;14.13;;;;;;;;;;5020489;28;20217;-74
2021/11/02 10:28:09;;;;;;;17.43;13.80;;;;;;;;;;5026090;28;20170;-74
2021/11/02 10:30:34;;;;;;;18.67;14.20;;;;;;;;;;5026027;28;20631;-74
2021/11/02 10:33:05;;;;;;;16.80;12.43;;;;;;;;;;5023164;28;20201;-74
2021/11/02 10:35:46;;;;;;;14.57;12.30;;;;;;;;;;5029599;28;20244;-74
2021/11/02 10:38:15;;;;;;;20.30;11.87;;;;;;;;;;5029106;28;20182;-74
2021/11/02 10:40:52;;;;;;;19.10;13.67;;;;;;;;;;5028515;28;20178;-74
2021/11/02 10:43:25;;;;;;;16.70;12.27;;;;;;;;;;5028922;28;20190;-74
2021/11/02 10:46:01;;;;;;;15.13;11.30;;;;;;;;;;5031187;28;20205;-73
2021/11/02 10:48:34;;;;;;;18.63;13.13;;;;;;;;;;5023802;28;20174;-74
2021/11/02 10:51:07;;;;;;;14.20;12.70;;;;;;;;;;5027650;28;20175;-73
2021/11/02 10:53:36;;;;;;;14.50;11.67;;;;;;;;;;5026519;28;20670;-74
2021/11/02 10:56:07;;;;;;;19.97;13.47;;;;;;;;;;5024561;28;20178;-74
2021/11/02 10:58:32;;;;;;;17.53;12.20;;;;;;;;;;5022705;28;20197;-73
2021/11/02 11:01:01;;;;;;;16.50;12.47;;;;;;;;;;5029722;28;20185;-74
2021/11/02 11:03:28;;;;;;;13.87;10.63;;;;;;;;;;5025554;28;20186;-73
2021/11/02 11:05:55;;;;;;;14.30;11.87;;;;;;;;;;5028436;28;20968;-74
2021/11/02 11:08:24;;;;;;;15.93;12.00;;;;;;;;;;5030522;28;20184;-74
2021/11/02 11:10:49;;;;;;;15.63;11.43;;;;;;;;;;5024274;28;20186;-74
2021/11/02 11:13:16;;;;;;;14.53;11.30;;;;;;;;;;5027329;28;20224;-74
2021/11/02 11:15:42;;;;;;;15.73;11.57;;;;;;;;;;5026506;28;21181;-75
2021/11/02 11:18:08;;;;;;;12.23;10.87;;;;;;;;;;5032228;28;20222;-74
2021/11/02 11:20:35;;;;;;;14.13;10.53;;;;;;;;;;5029332;28;20190;-75
2021/11/02 11:23:04;;;;;;;17.73;10.90;;;;;;;;;;5024560;28;20178;-75
2021/11/02 11:25:31;;;;;;;15.47;11.47;;;;;;;;;;5030313;28;20253;-74
2021/11/02 11:27:57;;;;;;;14.30;11.37;;;;;;;;;;5029979;28;20543;-73
2021/11/02 11:30:26;;;;;;;14.80;11.50;;;;;;;;;;5021351;28;20565;-74
2021/11/02 11:32:51;;;;;;;11.87;10.57;;;;;;;;;;5028862;28;20178;-73
2021/11/02 11:35:17;;;;;;;11.23;10.03;;;;;;;;;;5030558;28;20236;-74
2021/11/02 11:37:44;;;;;;;13.70;10.53;;;;;;;;;;5028123;28;20205;-74
2021/11/02 11:40:11;;;;;;;12.50;9.67;;;;;;;;;;5028395;28;20182;-74
2021/11/02 11:42:36;;;;;;;11.73;10.53;;;;;;;;;;5030835;28;20174;-74
2021/11/02 11:45:09;;;;;;;12.33;11.03;;;;;;;;;;5030139;28;20209;-74
2021/11/02 11:47:34;;;;;;;12.00;10.57;;;;;;;;;;5028031;28;20178;-74
2021/11/02 11:50:32;;;;;;;11.40;9.77;;;;;;;;;;5027228;28;20549;-75
2021/11/02 11:53:03;;;;;;;11.47;10.13;;;;;;;;;;4999584;28;20186;-75
2021/11/02 11:55:32;;;;;;;11.13;8.70;;;;;;;;;;5019802;28;20277;-74
2021/11/02 11:58:07;;;;;;;11.73;9.03;;;;;;;;;;5025441;28;20200;-75
2021/11/02 12:00:32;;;;;;;11.27;10.10;;;;;;;;;;5029846;28;20174;-74
2021/11/02 12:02:58;;;;;;;10.77;9.17;;;;;;;;;;5028282;28;20186;-75
2021/11/02 12:05:24;;;;;;;12.27;9.63;;;;;;;;;;5027175;28;20209;-74
2021/11/02 12:07:51;;;;;;;11.50;8.90;;;;;;;;;;5029184;28;20408;-74
2021/11/02 12:10:20;;;;;;;12.50;9.87;;;;;;;;;;5026163;28;20205;-74
2021/11/02 12:12:48;;;;;;;11.43;9.37;;;;;;;;;;5030144;28;20174;-75
2021/11/02 12:15:15;;;;;;;10.97;9.03;;;;;;;;;;5026393;28;20864;-75
2021/11/02 12:17:41;;;;;;;11.03;9.20;;;;;;;;;;5027379;28;20186;-75
2021/11/02 12:20:10;;;;;;;11.23;9.43;;;;;;;;;;5028818;28;20193;-74
2021/11/02 12:22:41;;;;;;;11.60;9.23;;;;;;;;;;5024305;28;20248;-74
2021/11/02 12:25:09;;;;;;;11.50;8.37;;;;;;;;;;5028794;28;20612;-74
2021/11/02 12:27:38;;;;;;;9.87;8.87;;;;;;;;;;5027789;28;20235;-74
2021/11/02 12:30:07;;;;;;;9.23;8.10;;;;;;;;;;5030525;28;20556;-75
2021/11/02 12:32:33;;;;;;;10.80;8.30;;;;;;;;;;5033994;28;20178;-73
2021/11/02 12:35:09;;;;;;;11.27;10.10;;;;;;;;;;5032555;28;20251;-73
2021/11/02 12:37:35;;;;;;;9.30;8.40;;;;;;;;;;5027546;28;20231;-74
2021/11/02 12:40:13;;;;;;;9.50;8.53;;;;;;;;;;5031186;28;20178;-73
2021/11/02 12:42:39;;;;;;;8.37;7.47;;;;;;;;;;5032040;28;20178;-75
2021/11/02 12:45:05;;;;;;;7.20;6.50;;;;;;;;;;5031054;28;20695;-74
2021/11/02 12:47:31;;;;;;;7.03;6.10;;;;;;;;;;5032061;28;20177;-74
2021/11/02 12:49:58;;;;;;;7.30;5.30;;;;;;;;;;5031644;28;20186;-74
2021/11/02 12:52:27;;;;;;;5.30;4.80;;;;;;;;;;5029497;28;20306;-74
2021/11/02 12:54:57;;;;;;;8.70;5.93;;;;;;;;;;5028858;28;20201;-74
2021/11/02 12:57:31;;;;;;;6.50;5.90;;;;;;;;;;5027420;28;20673;-75
2021/11/02 12:59:58;;;;;;;6.90;6.20;;;;;;;;;;5027152;28;20644;-75
2021/11/02 13:02:33;;;;;;;9.33;7.37;;;;;;;;;;5027679;28;20190;-74
2021/11/02 13:05:03;;;;;;;8.47;6.37;;;;;;;;;;5033260;28;20328;-74
2021/11/02 13:07:34;;;;;;;8.40;7.17;;;;;;;;;;5029438;28;20182;-74
2021/11/02 13:10:00;;;;;;;9.33;7.43;;;;;;;;;;5031008;28;20668;-74
2021/11/02 13:12:26;;;;;;;7.60;6.90;;;;;;;;;;5033783;28;20213;-75
2021/11/02 13:14:52;;;;;;;7.70;6.88;;;;;;;;;;5031775;28;20272;-75
2021/11/02 13:17:19;;;;;;;7.30;6.63;;;;;;;;;;5028354;28;20204;-74
2021/11/02 13:19:46;;;;;;;8.60;6.93;;;;;;;;;;5029557;28;20187;-74
2021/11/02 13:22:21;;;;;;;7.80;7.10;;;;;;;;;;5028844;28;20186;-74
2021/11/02 13:25:06;;;;;;;6.33;5.70;;;;;;;;;;5027622;28;20209;-74
2021/11/02 13:27:42;;;;;;;6.00;5.50;;;;;;;;;;5029672;28;20555;-74
2021/11/02 13:30:26;;;;;;;7.00;5.18;;;;;;;;;;5022463;28;20193;-74
2021/11/02 13:33:10;;;;;;;6.33;5.73;;;;;;;;;;5024883;28;20178;-74
2021/11/02 13:35:47;;;;;;;6.17;5.53;;;;;;;;;;5028725;28;20289;-73
2021/11/02 13:38:41;;;;;;;5.32;4.50;;;;;;;;;;5028948;28;20647;-75
2021/11/02 13:41:11;;;;;;;5.27;4.70;;;;;;;;;;5022151;28;20257;-74
2021/11/02 13:43:38;;;;;;;9.80;5.00;;;;;;;;;;5026520;28;20197;-75
2021/11/02 13:46:05;;;;;;;5.10;4.60;;;;;;;;;;5028519;28;20242;-75
2021/11/02 13:48:32;;;;;;;5.50;5.00;;;;;;;;;;5031923;28;20192;-74
2021/11/02 13:50:58;;;;;;;5.72;5.22;;;;;;;;;;5029081;28;20182;-74
2021/11/02 13:53:23;;;;;;;6.67;5.57;;;;;;;;;;5031736;28;20578;-74
2021/11/02 13:55:51;;;;;;;5.73;5.23;;;;;;;;;;5028803;28;20228;-74
2021/11/02 13:58:16;;;;;;;6.50;5.30;;;;;;;;;;5031011;28;20613;-74
2021/11/02 14:00:42;;;;;;;5.43;4.93;;;;;;;;;;5030317;28;20182;-75
2021/11/02 14:03:09;;;;;;;5.90;5.03;;;;;;;;;;5028197;28;20189;-75
2021/11/02 14:05:36;;;;;;;5.77;5.23;;;;;;;;;;5030423;28;20288;-74
2021/11/02 14:08:01;;;;;;;5.17;4.70;;;;;;;;;;5042075;28;20193;-74
2021/11/02 14:10:27;;;;;;;5.07;4.67;;;;;;;;;;5029116;28;20647;-74
2021/11/02 14:12:52;;;;;;;5.23;4.73;;;;;;;;;;5028150;28;20205;-74
2021/11/02 14:15:19;;;;;;;6.23;5.00;;;;;;;;;;5031416;28;20587;-74
2021/11/02 14:17:45;;;;;;;7.40;5.40;;;;;;;;;;5029412;28;20250;-73
2021/11/02 14:20:11;;;;;;;5.60;5.10;;;;;;;;;;5030943;28;20189;-73
2021/11/02 14:22:47;;;;;;;5.97;5.17;;;;;;;;;;5025321;28;20178;-73
2021/11/02 14:25:18;;;;;;;7.07;4.73;;;;;;;;;;5030304;28;20213;-75
2021/11/02 14:27:45;;;;;;;5.23;4.73;;;;;;;;;;5028803;28;20178;-74
2021/11/02 14:30:31;;;;;;;5.40;4.07;;;;;;;;;;5021476;28;20668;-75
2021/11/02 14:32:56;;;;;;;5.67;4.57;;;;;;;;;;4999553;28;20201;-74
2021/11/02 14:35:38;;;;;;;5.20;4.80;;;;;;;;;;5012499;28;20210;-74
2021/11/02 14:38:04;;;;;;;5.20;4.70;;;;;;;;;;5025280;28;20186;-74
2021/11/02 14:40:31;;;;;;;5.07;4.67;;;;;;;;;;5011902;28;20190;-74
2021/11/02 14:42:57;;;;;;;5.50;5.00;;;;;;;;;;5008177;28;20185;-74
2021/11/02 14:45:42;;;;;;;5.57;4.33;;;;;;;;;;5010956;28;20214;-74
2021/11/02 14:48:33;;;;;;;6.03;4.43;;;;;;;;;;5012979;28;20214;-74
2021/11/02 14:50:59;;;;;;;3.60;3.27;;;;;;;;;;5016173;28;20282;-74
2021/11/02 14:53:26;;;;;;;2.67;2.47;;;;;;;;;;5015964;28;20182;-73
2021/11/02 14:55:52;;;;;;;4.60;2.77;;;;;;;;;;5009288;28;20190;-74
2021/11/02 14:58:36;;;;;;;2.03;1.77;;;;;;;;;;5012878;28;20186;-74
2021/11/02 15:01:02;;;;;;;4.40;1.53;;;;;;;;;;5010664;28;20226;-74
2021/11/02 15:03:33;;;;;;;2.43;1.80;;;;;;;;;;5010096;28;20277;-74
2021/11/02 15:06:05;;;;;;;2.37;1.93;;;;;;;;;;5009926;28;20237;-74
2021/11/02 15:08:31;;;;;;;2.27;1.90;;;;;;;;;;5011191;28;20207;-74
2021/11/02 15:10:58;;;;;;;3.13;1.90;;;;;;;;;;5008288;28;20557;-75
2021/11/02 15:13:24;;;;;;;1.90;1.70;;;;;;;;;;5015202;28;20288;-74
2021/11/02 15:15:50;;;;;;;3.13;2.00;;;;;;;;;;5010841;28;20680;-74
2021/11/02 15:18:16;;;;;;;2.67;1.80;;;;;;;;;;5014563;28;20655;-74
2021/11/02 15:20:41;;;;;;;3.30;2.07;;;;;;;;;;5011248;28;20212;-74
2021/11/02 15:23:06;;;;;;;3.67;1.97;;;;;;;;;;5011809;28;20214;-73
2021/11/02 15:25:31;;;;;;;3.93;2.27;;;;;;;;;;5010468;28;20213;-74
2021/11/02 15:27:59;;;;;;;3.40;1.80;;;;;;;;;;5012050;28;20541;-74
2021/11/02 15:30:24;;;;;;;5.00;1.90;;;;;;;;;;5010822;28;20244;-74
2021/11/02 15:32:51;;;;;;;3.77;2.17;;;;;;;;;;5010846;28;20221;-74
2021/11/02 15:35:17;;;;;;;1.83;1.67;;;;;;;;;;5011137;28;20217;-74
2021/11/02 15:37:46;;;;;;;3.07;2.00;;;;;;;;;;5011302;28;20187;-74
2021/11/02 15:40:13;;;;;;;2.23;2.03;;;;;;;;;;5010549;28;20663;-74
2021/11/02 15:42:43;;;;;;;2.70;2.00;;;;;;;;;;5010812;28;20186;-74
2021/11/02 15:45:10;;;;;;;3.93;2.17;;;;;;;;;;5010975;28;21943;-74
2021/11/02 15:47:41;;;;;;;3.20;1.87;;;;;;;;;;5009801;28;20193;-75
2021/11/02 15:50:08;;;;;;;2.03;1.73;;;;;;;;;;5020537;28;20170;-75
2021/11/02 15:52:34;;;;;;;2.00;1.60;;;;;;;;;;5012205;28;20890;-74
2021/11/02 15:55:31;;;;;;;2.10;1.67;;;;;;;;;;5009052;28;20220;-75
2021/11/02 15:57:58;;;;;;;1.90;1.57;;;;;;;;;;4981509;28;20202;-74
2021/11/02 16:00:24;;;;;;;1.77;1.27;;;;;;;;;;5014412;28;20204;-74
2021/11/02 16:02:50;;;;;;;1.20;1.00;;;;;;;;;;5012088;28;20198;-75
2021/11/02 16:05:19;;;;;;;3.37;1.30;;;;;;;;;;5015603;28;20202;-74
2021/11/02 16:07:45;;;;;;;2.47;1.10;;;;;;;;;;5014210;28;20182;-74
2021/11/02 16:10:10;;;;;;;1.93;0.97;;;;;;;;;;5014701;28;20595;-74
2021/11/02 16:12:38;;;;;;;2.70;1.00;;;;;;;;;;5015238;28;20252;-73
2021/11/02 16:15:06;;;;;;;1.87;1.20;;;;;;;;;;5014185;28;20498;-75
2021/11/02 16:17:37;;;;;;;4.17;1.50;;;;;;;;;;5022429;28;20182;-74
2021/11/02 16:20:02;;;;;;;1.50;1.20;;;;;;;;;;5028994;28;20559;-74
2021/11/02 16:22:27;;;;;;;1.60;1.10;;;;;;;;;;5013626;28;20179;-73
2021/11/02 16:25:00;;;;;;;1.73;1.40;;;;;;;;;;5010288;28;20212;-73
2021/11/02 16:27:25;;;;;;;3.73;1.10;;;;;;;;;;5015363;28;20182;-74
2021/11/02 16:29:51;;;;;;;1.40;1.10;;;;;;;;;;5012872;28;20174;-74
2021/11/02 16:32:23;;;;;;;1.10;1.00;;;;;;;;;;5017042;28;20178;-73
2021/11/02 16:34:49;;;;;;;1.40;1.20;;;;;;;;;;5013467;28;20190;-75
2021/11/02 16:37:29;;;;;;;2.03;1.30;;;;;;;;;;5014533;28;20178;-75
2021/11/02 16:40:15;;;;;;;1.60;1.10;;;;;;;;;;5012802;28;20189;-74
2021/11/02 16:42:40;;;;;;;2.90;1.00;;;;;;;;;;5013061;28;20804;-74
2021/11/02 16:45:12;;;;;;;1.50;1.00;;;;;;;;;;5016338;28;20209;-74
2021/11/02 16:47:37;;;;;;;1.47;0.90;;;;;;;;;;5016510;28;20186;-74
2021/11/02 16:50:04;;;;;;;1.23;0.83;;;;;;;;;;5015175;28;20685;-72
2021/11/02 16:52:30;;;;;;;2.33;1.23;;;;;;;;;;5015799;28;20277;-73
2021/11/02 16:55:06;;;;;;;2.10;1.10;;;;;;;;;;5015825;28;20861;-74
2021/11/02 16:57:31;;;;;;;1.67;0.90;;;;;;;;;;5023051;28;20356;-74
2021/11/02 17:00:06;;;;;;;2.93;1.20;;;;;;;;;;5009986;28;20643;-75
2021/11/02 17:02:32;;;;;;;2.43;1.67;;;;;;;;;;5012809;28;20320;-74
2021/11/02 17:05:11;;;;;;;3.47;2.20;;;;;;;;;;5014777;28;20631;-74
2021/11/02 17:07:38;;;;;;;3.50;1.20;;;;;;;;;;5006716;28;20186;-74
2021/11/02 17:10:16;;;;;;;1.40;1.10;;;;;;;;;;5010977;28;20571;-74
2021/11/02 17:12:41;;;;;;;3.37;1.63;;;;;;;;;;5013083;28;20178;-74
2021/11/02 17:15:06;;;;;;;2.03;1.20;;;;;;;;;;5011074;28;20232;-74
2021/11/02 17:17:41;;;;;;;1.47;1.10;;;;;;;;;;5027138;28;20186;-74
2021/11/02 17:20:10;;;;;;;2.67;1.80;;;;;;;;;;5010803;28;20629;-74
2021/11/02 17:22:36;;;;;;;4.23;1.70;;;;;;;;;;5013503;28;20178;-74
2021/11/02 17:25:01;;;;;;;2.93;1.40;;;;;;;;;;5008712;28;20216;-73
2021/11/02 17:27:27;;;;;;;1.77;1.50;;;;;;;;;;5014800;28;20324;-74
2021/11/02 17:29:52;;;;;;;2.83;1.40;;;;;;;;;;5014356;28;20182;-74
2021/11/02 17:32:18;;;;;;;3.43;1.60;;;;;;;;;;5011313;28;20534;-74
2021/11/02 17:34:44;;;;;;;1.60;1.40;;;;;;;;;;5026657;28;20195;-74
2021/11/02 17:37:10;;;;;;;1.97;1.63;;;;;;;;;;5012165;28;20233;-74
2021/11/02 17:39:36;;;;;;;2.00;1.50;;;;;;;;;;5010999;28;20186;-75
2021/11/02 17:42:03;;;;;;;1.50;1.40;;;;;;;;;;5011042;28;20174;-73
2021/11/02 17:44:29;;;;;;;2.53;2.13;;;;;;;;;;5011486;28;20206;-73
2021/11/02 17:46:54;;;;;;;1.83;1.60;;;;;;;;;;5009808;28;20743;-73
2021/11/02 17:49:20;;;;;;;1.83;1.57;;;;;;;;;;5012355;28;20204;-74
2021/11/02 17:51:46;;;;;;;2.93;2.00;;;;;;;;;;5011665;28;20227;-74
2021/11/02 17:54:11;;;;;;;6.03;2.10;;;;;;;;;;5012790;28;20730;-74
2021/11/02 17:56:38;;;;;;;2.10;1.73;;;;;;;;;;5012459;28;20557;-74
2021/11/02 17:59:04;;;;;;;1.40;1.13;;;;;;;;;;5013416;28;20751;-74
2021/11/02 18:01:30;;;;;;;0.80;0.77;;;;;;;;;;5011438;28;20186;-74
2021/11/02 18:03:58;;;;;;;0.90;0.83;;;;;;;;;;5011943;28;20204;-74
2021/11/02 18:06:23;;;;;;;1.20;0.63;;;;;;;;;;5015636;28;20609;-75
2021/11/02 18:08:49;;;;;;;1.47;0.60;;;;;;;;;;5011110;28;20190;-75
2021/11/02 18:11:15;;;;;;;1.17;0.60;;;;;;;;;;5011661;28;20182;-75
2021/11/02 18:13:40;;;;;;;0.77;0.57;;;;;;;;;;5013219;28;20181;-75
2021/11/02 18:16:07;;;;;;;2.33;0.90;;;;;;;;;;5012909;28;20170;-75
2021/11/02 18:18:37;;;;;;;0.70;0.50;;;;;;;;;;5013215;28;20197;-75
2021/11/02 18:21:03;;;;;;;3.20;0.70;;;;;;;;;;5009361;28;20183;-75
2021/11/02 18:23:28;;;;;;;0.60;0.50;;;;;;;;;;5007697;28;20182;-75
2021/11/02 18:25:53;;;;;;;0.83;0.40;;;;;;;;;;5014240;28;20210;-75
2021/11/02 18:28:19;;;;;;;0.97;0.50;;;;;;;;;;5013311;28;20171;-73
2021/11/02 18:30:44;;;;;;;0.37;0.37;;;;;;;;;;5010097;28;20178;-73
2021/11/02 18:33:09;;;;;;;0.40;0.40;;;;;;;;;;5025339;28;20174;-73
2021/11/02 18:35:38;;;;;;;0.70;0.50;;;;;;;;;;5007899;28;20203;-73
2021/11/02 18:38:03;;;;;;;1.07;0.60;;;;;;;;;;5010193;28;20193;-75
2021/11/02 18:40:29;;;;;;;0.70;0.50;;;;;;;;;;5005878;28;20182;-73
2021/11/02 18:42:55;;;;;;;0.60;0.40;;;;;;;;;;5008423;28;20194;-75
2021/11/02 18:45:23;;;;;;;2.27;1.57;;;;;;;;;;5013695;28;20213;-75
2021/11/02 18:47:48;;;;;;;1.00;0.90;;;;;;;;;;5010093;28;20187;-75
2021/11/02 18:50:14;;;;;;;1.80;0.80;;;;;;;;;;5009608;28;22329;-75
2021/11/02 18:52:40;;;;;;;0.67;0.67;;;;;;;;;;5012161;28;20295;-75
2021/11/02 18:55:06;;;;;;;0.90;0.70;;;;;;;;;;5012135;28;20277;-74
2021/11/02 18:57:32;;;;;;;1.27;0.83;;;;;;;;;;5013496;28;20194;-76
2021/11/02 18:59:58;;;;;;;1.57;1.17;;;;;;;;;;5015645;28;20271;-75
2021/11/02 19:02:23;;;;;;;3.80;2.07;;;;;;;;;;5013984;28;20549;-75
2021/11/02 19:04:48;;;;;;;1.60;1.40;;;;;;;;;;5011799;28;20206;-75
2021/11/02 19:07:14;;;;;;;2.53;1.77;;;;;;;;;;5010237;28;20265;-75
2021/11/02 19:09:39;;;;;;;2.13;1.93;;;;;;;;;;5015677;28;20174;-76
2021/11/02 19:12:04;;;;;;;7.83;4.50;;;;;;;;;;5012624;28;20247;-73
2021/11/02 19:14:29;;;;;;;15.87;7.63;;;;;;;;;;5010380;28;20382;-75
2021/11/02 19:16:55;;;;;;;2.27;1.93;;;;;;;;;;5014180;28;20211;-75
2021/11/02 19:19:20;;;;;;;1.57;1.20;;;;;;;;;;5014019;28;20232;-75
2021/11/02 19:21:45;;;;;;;2.00;1.43;;;;;;;;;;5008460;28;20619;-75
2021/11/02 19:24:11;;;;;;;1.63;1.20;;;;;;;;;;5011733;28;20218;-75
2021/11/02 19:26:36;;;;;;;1.53;1.13;;;;;;;;;;5014077;28;20224;-74
2021/11/02 19:29:02;;;;;;;1.47;1.30;;;;;;;;;;5009170;28;20185;-75
2021/11/02 19:31:32;;;;;;;1.00;1.00;;;;;;;;;;5010987;28;20178;-75